Daihatsumaru — JD2764 — position and weather

sailwx.info

Track history (hours):
 
Tides and Currents Weather Stations Pressure Air Temp Water Temp Dewpoint Dewpoint Depression Visibility Wind Speed Wind Dir Waves Ship Positions

Daihatsumaru

Last reported at 2015-Mar-05 04:18 UTC. Time now 2015-Mar-06 00:07 UTC.
Position N 34°36' E 134°55'.

Length 106 m; draft 4.5 m.

Type: Cargo ship. MMSI: 431000701.

Date/timePositionNaut miles runAvg speedWind from/ knotsBaromVisibWave heightAir tempDewpointWater temp
2015-Mar-05 04:18N 34°36' E 134°55'912.2
2015-Mar-05 03:33N 34°36' E 135°06'1514.5
2015-Mar-05 02:33N 34°41' E 135°23'1 0.7
2015-Mar-05 01:25N 34°41' E 135°23'0 0.0
2015-Mar-05 00:31N 34°41' E 135°23'0 0.0
2015-Mar-04 23:31N 34°41' E 135°23'1 1.2
2015-Mar-04 22:33N 34°41' E 135°22'1 1.0
2015-Mar-04 21:29N 34°40' E 135°21'0 0.0
2015-Mar-04 20:23N 34°40' E 135°21'0 0.0
2015-Mar-04 19:26N 34°40' E 135°21'2 1.8
2015-Mar-04 18:33N 34°39' E 135°20'1514.7
2015-Mar-04 17:33N 34°36' E 135°02'5 0.1
2015-Mar-03 04:32N 34°36' E 134°56'1313.1
2015-Mar-03 03:33N 34°36' E 135°11'11 5.6
2015-Mar-03 01:31N 34°41' E 135°23'0 0.0
2015-Mar-03 00:31N 34°41' E 135°23'0 0.0
2015-Mar-02 23:31N 34°41' E 135°23'1 1.5
2015-Mar-02 22:34N 34°40' E 135°22'2 1.7
2015-Mar-02 21:33N 34°40' E 135°20'0 0.1
2015-Mar-02 20:33N 34°40' E 135°20'0 0.1
2015-Mar-02 19:33N 34°40' E 135°20'4 4.0
2015-Mar-02 18:33N 34°37' E 135°17'1414.2
2015-Mar-02 17:33N 34°37' E 134°59'  
2015-Feb-28 05:22N 34°35' E 134°51'1113.4
2015-Feb-28 04:33N 34°36' E 135°04'1514.8
2015-Feb-28 03:33N 34°40' E 135°21'2 1.8
2015-Feb-28 02:25N 34°41' E 135°23'0 0.0
2015-Feb-28 00:25N 34°41' E 135°23'0 0.0
2015-Feb-27 23:33N 34°41' E 135°23'2 1.8
2015-Feb-27 22:33N 34°40' E 135°22'1 1.0
2015-Feb-27 21:24N 34°40' E 135°20'0 0.2
2015-Feb-27 20:33N 34°40' E 135°20'1313.6
2015-Feb-27 19:34N 34°34' E 135°05'1211.3
2015-Feb-27 18:31N 34°34' E 134°51'5 0.1
2015-Feb-26 04:26N 34°37' E 134°56'1315.3
2015-Feb-26 03:33N 34°37' E 135°12'10 8.2
2015-Feb-26 02:19N 34°41' E 135°23'0 0.0
2015-Feb-26 01:22N 34°41' E 135°23'0 0.0
2015-Feb-26 00:28N 34°41' E 135°23'0 0.0
2015-Feb-25 23:28N 34°41' E 135°23'2 2.8
2015-Feb-25 22:33N 34°40' E 135°21'1 0.8
2015-Feb-25 21:33N 34°40' E 135°20'0 0.0
2015-Feb-25 20:27N 34°40' E 135°20'8 9.3
2015-Feb-25 19:33N 34°35' E 135°12'1212.1
2015-Feb-25 18:33N 34°36' E 134°57'5 0.1
2015-Feb-24 05:17N 34°35' E 134°51'1114.6
2015-Feb-24 04:33N 34°36' E 135°04'1515.0
2015-Feb-24 03:33N 34°40' E 135°22'2 1.8
2015-Feb-24 02:33N 34°41' E 135°23'0 0.0
2015-Feb-24 01:33N 34°41' E 135°23'0 0.0
2015-Feb-24 00:33N 34°41' E 135°23'0 0.0
2015-Feb-23 23:33N 34°41' E 135°23'2 2.1
2015-Feb-23 22:33N 34°40' E 135°21'1 1.1
2015-Feb-23 21:28N 34°40' E 135°20'1 0.6
2015-Feb-23 20:33N 34°39' E 135°20'1413.6
2015-Feb-23 19:33N 34°35' E 135°04'  
Track history (hours):
 
Tides and Currents Weather Stations Pressure Air Temp Water Temp Dewpoint Dewpoint Depression Visibility Wind Speed Wind Dir Waves Ship Positions

Daihatsumaru

Last reported at 2015-Mar-05 04:18 UTC. Time now 2015-Mar-06 00:07 UTC.
Position N 34°36' E 134°55'.

Length 106 m; draft 4.5 m.

Type: Cargo ship. MMSI: 431000701.

Date/timePositionNaut miles runAvg speedWind from/ knotsBaromVisibWave heightAir tempDewpointWater temp
2015-Mar-05 04:18N 34°36' E 134°55'912.2
2015-Mar-05 03:33N 34°36' E 135°06'1514.5
2015-Mar-05 02:33N 34°41' E 135°23'1 0.7
2015-Mar-05 01:25N 34°41' E 135°23'0 0.0
2015-Mar-05 00:31N 34°41' E 135°23'0 0.0
2015-Mar-04 23:31N 34°41' E 135°23'1 1.2
2015-Mar-04 22:33N 34°41' E 135°22'1 1.0
2015-Mar-04 21:29N 34°40' E 135°21'0 0.0
2015-Mar-04 20:23N 34°40' E 135°21'0 0.0
2015-Mar-04 19:26N 34°40' E 135°21'2 1.8
2015-Mar-04 18:33N 34°39' E 135°20'1514.7
2015-Mar-04 17:33N 34°36' E 135°02'5 0.1
2015-Mar-03 04:32N 34°36' E 134°56'1313.1
2015-Mar-03 03:33N 34°36' E 135°11'11 5.6
2015-Mar-03 01:31N 34°41' E 135°23'0 0.0
2015-Mar-03 00:31N 34°41' E 135°23'0 0.0
2015-Mar-02 23:31N 34°41' E 135°23'1 1.5
2015-Mar-02 22:34N 34°40' E 135°22'2 1.7
2015-Mar-02 21:33N 34°40' E 135°20'0 0.1
2015-Mar-02 20:33N 34°40' E 135°20'0 0.1
2015-Mar-02 19:33N 34°40' E 135°20'4 4.0
2015-Mar-02 18:33N 34°37' E 135°17'1414.2
2015-Mar-02 17:33N 34°37' E 134°59'  
2015-Feb-28 05:22N 34°35' E 134°51'1113.4
2015-Feb-28 04:33N 34°36' E 135°04'1514.8
2015-Feb-28 03:33N 34°40' E 135°21'2 1.8
2015-Feb-28 02:25N 34°41' E 135°23'0 0.0
2015-Feb-28 00:25N 34°41' E 135°23'0 0.0
2015-Feb-27 23:33N 34°41' E 135°23'2 1.8
2015-Feb-27 22:33N 34°40' E 135°22'1 1.0
2015-Feb-27 21:24N 34°40' E 135°20'0 0.2
2015-Feb-27 20:33N 34°40' E 135°20'1313.6
2015-Feb-27 19:34N 34°34' E 135°05'1211.3
2015-Feb-27 18:31N 34°34' E 134°51'5 0.1
2015-Feb-26 04:26N 34°37' E 134°56'1315.3
2015-Feb-26 03:33N 34°37' E 135°12'10 8.2
2015-Feb-26 02:19N 34°41' E 135°23'0 0.0
2015-Feb-26 01:22N 34°41' E 135°23'0 0.0
2015-Feb-26 00:28N 34°41' E 135°23'0 0.0
2015-Feb-25 23:28N 34°41' E 135°23'2 2.8
2015-Feb-25 22:33N 34°40' E 135°21'1 0.8
2015-Feb-25 21:33N 34°40' E 135°20'0 0.0
2015-Feb-25 20:27N 34°40' E 135°20'8 9.3
2015-Feb-25 19:33N 34°35' E 135°12'1212.1
2015-Feb-25 18:33N 34°36' E 134°57'5 0.1
2015-Feb-24 05:17N 34°35' E 134°51'1114.6
2015-Feb-24 04:33N 34°36' E 135°04'1515.0
2015-Feb-24 03:33N 34°40' E 135°22'2 1.8
2015-Feb-24 02:33N 34°41' E 135°23'0 0.0
2015-Feb-24 01:33N 34°41' E 135°23'0 0.0
2015-Feb-24 00:33N 34°41' E 135°23'0 0.0
2015-Feb-23 23:33N 34°41' E 135°23'2 2.1
2015-Feb-23 22:33N 34°40' E 135°21'1 1.1
2015-Feb-23 21:28N 34°40' E 135°20'1 0.6
2015-Feb-23 20:33N 34°39' E 135°20'1413.6
2015-Feb-23 19:33N 34°35' E 135°04'  

Dump ship's entire track history